Saint George, UT (84770)

11:41 AM MDT on September 25, 2016 (GMT -0600)
Saint George Municipal | | Change Station

Elev 2940 ft 37.09 °N, 113.59 °W | Updated 6 minutes ago

Clear
Clear
73 °F
Feels Like 73 °F
N
14
Wind Variable Wind from NNE
Gusts 21 mph

Today
High -- | Low -- °F
--% Chance of Precip.
Yesterday
High -- | Low -- °F
Precip. -- in
Pressure 30.34 in
Visibility 10.0 miles
Clouds Clear
Dew Point 34 °F
Humidity 23%
Rainfall 0.00 in
Snow Depth Not available.
7:25 AM 7:25 PM
Waning Crescent, 26% visible
METAR KSGU 251735Z 03012G18KT 10SM CLR 23/01 A3034 RMK AO1
Pressure 30.34 in
Visibility 10.0 miles
Clouds Clear
Dew Point 34 °F
Humidity 23%
Rainfall 0.00 in
Snow Depth Not available.
7:25 AM 7:25 PM
Waning Crescent, 26% visible
METAR KSGU 251735Z 03012G18KT 10SM CLR 23/01 A3034 RMK AO1

10-Day Weather Forecast

Almanac

Astronomy

Sep. 25, 2016 Rise Set
Actual Time
Civil Twilight
Nautical Twilight
Astronomical Twilight
Moon
Length of Visible Light
Length of Day
Tomorrow will be .
, % of the Moon is Illuminated

Today's Extremes

State Highs State Lows

Community

WunderPhotos

Upload Photos

1,941,674 photos uploaded!

WunderBlog® & News

Nearby

Air Quality

  Air Quality AQ Index Pollutant
Not available.

Snow Depth

Station Depth Elevation

Earthquake Activity

City Distance Mag. Time & Date
Minimum magnitude displayed is 2.5.

Coastal Water Temperatures

Place Temperature

Stations

Nearby Weather Stations

Station Location Temp. Windchill Dew Point Humidity Wind Precip. Elev Updated Type
                   

Watches & Warnings

There are currently no watches in effect.